Time;durP1;ratioP1;P1;durP2;ratioP2;P2;SDS_P1;SDS_P2;PMS_P1;PMS_P2;Temp;Humidity;BMP_temperature;BMP_pressure;BME280_temperature;BME280_humidity;BME280_pressure;Samples;Min_cycle;Max_cycle;Signal;HPM_P1;HPM_P2
2021/12/30 00:00:50;;;;;;;22.50;5.03;;;11.60;99.90;;;;;;5073176;28;20196;-46
2021/12/30 00:03:15;;;;;;;24.70;4.33;;;11.60;99.90;;;;;;5073019;28;20221;-46
2021/12/30 00:05:41;;;;;;;22.87;4.60;;;11.60;99.90;;;;;;5072855;28;20575;-46
2021/12/30 00:08:07;;;;;;;19.13;3.83;;;11.60;99.90;;;;;;5058458;28;20211;-44
2021/12/30 00:10:33;;;;;;;26.03;5.07;;;11.60;99.90;;;;;;5059590;28;20207;-45
2021/12/30 00:12:59;;;;;;;15.53;3.90;;;11.50;99.90;;;;;;5076615;28;20210;-47
2021/12/30 00:15:25;;;;;;;26.03;4.03;;;11.50;99.90;;;;;;5058608;28;20236;-46
2021/12/30 00:17:51;;;;;;;21.07;4.00;;;11.50;99.90;;;;;;5076592;28;20225;-45
2021/12/30 00:20:17;;;;;;;29.77;4.93;;;11.60;99.90;;;;;;5076625;28;20184;-46
2021/12/30 00:22:43;;;;;;;28.10;4.90;;;11.60;99.90;;;;;;5076537;28;20670;-45
2021/12/30 00:25:11;;;;;;;20.57;4.63;;;11.60;99.90;;;;;;5076639;28;20672;-46
2021/12/30 00:27:37;;;;;;;18.17;4.27;;;11.60;99.90;;;;;;5076669;28;20194;-45
2021/12/30 00:30:05;;;;;;;25.10;4.87;;;11.70;99.90;;;;;;5076592;28;20178;-45
2021/12/30 00:32:31;;;;;;;21.43;4.50;;;11.70;99.90;;;;;;5076132;28;20202;-45
2021/12/30 00:34:56;;;;;;;17.23;4.53;;;11.70;99.90;;;;;;5058359;28;20182;-45
2021/12/30 00:37:22;;;;;;;22.73;4.57;;;11.70;99.90;;;;;;5076293;28;20209;-45
2021/12/30 00:39:47;;;;;;;29.83;5.07;;;11.70;99.90;;;;;;5076056;28;20195;-45
2021/12/30 00:42:13;;;;;;;18.03;4.53;;;11.70;99.90;;;;;;5076042;28;20741;-45
2021/12/30 00:44:39;;;;;;;21.77;4.17;;;11.70;99.90;;;;;;5076281;28;20200;-46
2021/12/30 00:47:04;;;;;;;33.17;5.83;;;11.70;99.90;;;;;;5076510;28;20181;-46
2021/12/30 00:49:30;;;;;;;21.93;4.47;;;11.70;99.90;;;;;;5076110;28;20171;-45
2021/12/30 00:51:56;;;;;;;30.13;5.30;;;11.70;99.90;;;;;;5075873;28;20199;-45
2021/12/30 00:54:23;;;;;;;25.83;3.83;;;11.60;99.90;;;;;;5075942;28;20173;-44
2021/12/30 00:56:49;;;;;;;19.97;4.60;;;11.60;99.90;;;;;;5057836;28;20653;-46
2021/12/30 00:59:14;;;;;;;19.07;3.83;;;11.60;99.90;;;;;;5076060;28;20217;-45
2021/12/30 01:01:40;;;;;;;27.30;4.87;;;11.60;99.90;;;;;;5076231;28;20163;-45
2021/12/30 01:04:06;;;;;;;24.93;4.23;;;11.60;99.90;;;;;;5075913;28;20206;-44
2021/12/30 01:06:32;;;;;;;19.93;4.40;;;11.60;99.90;;;;;;5075658;28;20168;-45
2021/12/30 01:08:58;;;;;;;22.33;4.23;;;11.60;99.90;;;;;;5076239;28;20185;-45
2021/12/30 01:11:25;;;;;;;25.20;5.57;;;11.60;99.90;;;;;;5075864;28;20270;-47
2021/12/30 01:14:02;;;;;;;18.50;4.10;;;11.70;99.90;;;;;;5057532;28;20197;-46
2021/12/30 01:16:30;;;;;;;30.87;4.63;;;11.70;99.90;;;;;;5057591;28;20175;-45
2021/12/30 01:21:24;;;;;;;20.47;5.03;;;11.70;99.90;;;;;;5076078;28;20213;-46
2021/12/30 01:23:51;;;;;;;22.63;4.07;;;11.70;99.90;;;;;;5057463;28;20227;-45
2021/12/30 01:26:16;;;;;;;18.97;3.93;;;11.70;99.90;;;;;;5075379;28;20174;-45
2021/12/30 01:28:42;;;;;;;19.93;3.80;;;11.70;99.90;;;;;;5075269;28;20190;-46
2021/12/30 01:31:08;;;;;;;20.67;4.00;;;11.80;99.90;;;;;;5075197;28;20543;-45
2021/12/30 01:33:34;;;;;;;15.77;3.23;;;11.80;99.90;;;;;;5075135;28;20202;-45
2021/12/30 01:36:00;;;;;;;17.30;4.20;;;11.80;99.90;;;;;;5075213;28;20183;-47
2021/12/30 01:38:26;;;;;;;17.53;3.53;;;11.90;99.90;;;;;;5075716;28;20203;-46
2021/12/30 01:40:55;;;;;;;18.00;4.40;;;11.90;99.90;;;;;;5075875;28;20239;-47
2021/12/30 01:43:21;;;;;;;16.97;3.47;;;11.90;99.90;;;;;;5075545;28;20218;-48
2021/12/30 01:45:47;;;;;;;22.67;4.17;;;11.90;99.90;;;;;;5057536;28;20174;-47
2021/12/30 01:48:13;;;;;;;22.20;4.10;;;11.80;99.90;;;;;;5075772;28;20186;-49
2021/12/30 01:50:40;;;;;;;19.70;4.07;;;11.80;99.90;;;;;;5057640;28;20190;-47
2021/12/30 01:53:06;;;;;;;20.73;4.50;;;11.90;99.90;;;;;;5075303;28;20199;-48
2021/12/30 01:55:34;;;;;;;24.57;4.17;;;11.90;99.90;;;;;;5075371;28;20232;-47
2021/12/30 01:58:01;;;;;;;17.10;4.27;;;11.90;99.90;;;;;;5075143;28;20209;-47
2021/12/30 02:00:28;;;;;;;17.87;4.70;;;11.90;99.90;;;;;;5075485;28;20179;-47
2021/12/30 02:02:54;;;;;;;20.00;3.83;;;11.90;99.90;;;;;;5075149;28;20200;-47
2021/12/30 02:05:21;;;;;;;17.13;3.83;;;12.00;99.90;;;;;;5075041;28;20175;-44
2021/12/30 02:07:46;;;;;;;15.67;4.43;;;12.00;99.90;;;;;;5056570;28;20186;-44
2021/12/30 02:10:13;;;;;;;19.03;3.30;;;12.10;99.90;;;;;;5074762;28;20188;-44
2021/12/30 02:12:40;;;;;;;13.70;3.53;;;12.10;99.90;;;;;;5074466;28;20359;-44
2021/12/30 02:15:10;;;;;;;19.23;3.80;;;12.10;99.90;;;;;;5074648;28;20271;-46
2021/12/30 02:17:36;;;;;;;16.30;4.37;;;12.10;99.90;;;;;;5074431;28;20297;-43
2021/12/30 02:20:10;;;;;;;20.33;4.30;;;12.20;99.90;;;;;;5056321;28;20308;-44
2021/12/30 02:22:36;;;;;;;21.33;4.90;;;12.20;99.90;;;;;;5074144;28;20620;-44
2021/12/30 02:25:04;;;;;;;22.33;4.43;;;12.20;99.90;;;;;;5056225;28;20180;-43
2021/12/30 02:27:30;;;;;;;19.10;4.20;;;12.20;99.90;;;;;;5074340;28;20244;-43
2021/12/30 02:29:55;;;;;;;14.67;4.63;;;12.20;99.90;;;;;;5073845;28;20183;-43
2021/12/30 02:32:22;;;;;;;17.53;4.87;;;12.20;99.90;;;;;;5073866;28;20208;-44
2021/12/30 02:34:51;;;;;;;15.90;4.80;;;12.20;99.90;;;;;;5073880;28;20189;-42
2021/12/30 02:37:19;;;;;;;23.93;4.77;;;12.20;99.90;;;;;;5074163;28;20622;-43
2021/12/30 02:39:51;;;;;;;17.93;4.47;;;12.20;99.90;;;;;;5073828;28;20653;-43
2021/12/30 02:42:19;;;;;;;17.97;4.27;;;12.20;99.90;;;;;;5057062;28;20194;-43
2021/12/30 02:44:44;;;;;;;18.00;4.87;;;12.20;99.90;;;;;;5073751;28;20206;-46
2021/12/30 02:47:14;;;;;;;14.97;4.30;;;12.20;99.90;;;;;;5073991;28;20653;-44
2021/12/30 02:49:40;;;;;;;15.03;4.43;;;12.20;99.90;;;;;;5073866;28;20194;-43
2021/12/30 02:52:06;;;;;;;20.70;6.17;;;12.20;99.90;;;;;;5073819;28;20247;-42
2021/12/30 02:54:31;;;;;;;16.63;5.50;;;12.20;99.90;;;;;;5073590;28;20622;-44
2021/12/30 02:56:57;;;;;;;18.60;5.80;;;12.20;99.90;;;;;;5073539;28;20228;-45
2021/12/30 02:59:22;;;;;;;18.27;6.57;;;12.20;99.90;;;;;;5073817;28;20182;-43
2021/12/30 03:01:49;;;;;;;24.77;6.73;;;12.20;99.90;;;;;;5073658;28;20198;-43
2021/12/30 03:04:15;;;;;;;14.87;6.23;;;12.20;99.90;;;;;;5073758;28;20186;-44
2021/12/30 03:06:40;;;;;;;17.87;7.20;;;12.20;99.90;;;;;;5055590;28;20182;-45
2021/12/30 03:09:06;;;;;;;16.37;6.60;;;12.20;99.90;;;;;;5073703;28;20390;-45
2021/12/30 03:11:32;;;;;;;15.80;6.80;;;12.20;99.90;;;;;;5073631;28;20268;-43
2021/12/30 03:13:59;;;;;;;14.43;6.70;;;12.30;99.90;;;;;;5073605;28;20302;-44
2021/12/30 03:16:32;;;;;;;15.17;6.73;;;12.20;99.90;;;;;;5055396;28;20684;-44
2021/12/30 03:18:59;;;;;;;13.30;6.40;;;12.30;99.90;;;;;;5073525;28;20286;-43
2021/12/30 03:21:25;;;;;;;13.87;6.43;;;12.30;99.90;;;;;;5055209;28;20175;-43
2021/12/30 03:23:53;;;;;;;11.77;5.90;;;12.40;99.90;;;;;;5055370;28;20292;-43
2021/12/30 03:26:20;;;;;;;16.20;5.50;;;12.30;99.90;;;;;;5054985;28;20194;-42
2021/12/30 03:28:47;;;;;;;9.07;5.37;;;12.40;99.90;;;;;;5073195;28;20171;-43
2021/12/30 03:31:17;;;;;;;11.63;5.43;;;12.40;99.90;;;;;;5055188;28;20236;-45
2021/12/30 03:33:44;;;;;;;11.63;5.03;;;12.40;99.90;;;;;;5038654;28;20289;-45
2021/12/30 03:36:11;;;;;;;13.27;5.37;;;12.40;99.90;;;;;;5073123;28;20186;-42
2021/12/30 03:38:39;;;;;;;12.73;5.13;;;12.30;99.90;;;;;;5073316;28;20218;-44
2021/12/30 03:41:07;;;;;;;9.47;4.70;;;12.40;99.90;;;;;;5073189;28;20175;-45
2021/12/30 03:43:34;;;;;;;12.20;5.57;;;12.40;99.90;;;;;;5077425;28;20194;-45
2021/12/30 03:46:00;;;;;;;6.20;3.97;;;12.40;99.90;;;;;;5078043;28;20515;-44
2021/12/30 03:48:34;;;;;;;6.00;3.80;;;12.40;99.90;;;;;;5077419;28;20541;-46
2021/12/30 03:51:06;;;;;;;8.27;4.30;;;12.40;99.90;;;;;;5077202;28;20194;-44
2021/12/30 03:53:38;;;;;;;5.40;3.83;;;12.50;99.90;;;;;;5059007;28;20213;-45
2021/12/30 03:56:12;;;;;;;8.47;3.30;;;12.50;99.90;;;;;;5059445;28;20193;-45
2021/12/30 03:58:39;;;;;;;6.93;3.17;;;12.50;99.90;;;;;;5077264;28;20270;-45
2021/12/30 04:01:06;;;;;;;5.63;3.33;;;12.50;99.90;;;;;;5076911;28;20176;-44
2021/12/30 04:03:32;;;;;;;6.37;3.30;;;12.50;99.90;;;;;;5076806;28;20670;-46
2021/12/30 04:05:58;;;;;;;6.87;3.53;;;12.60;99.90;;;;;;5059058;28;20260;-46
2021/12/30 04:08:24;;;;;;;5.37;3.40;;;12.50;99.90;;;;;;5076830;28;20241;-46
2021/12/30 04:10:49;;;;;;;3.90;3.00;;;12.60;99.90;;;;;;5042184;28;20198;-45
2021/12/30 04:13:15;;;;;;;3.30;2.40;;;12.60;99.90;;;;;;5076869;28;20266;-46
2021/12/30 04:15:41;;;;;;;5.73;2.60;;;12.60;99.90;;;;;;5076658;28;20187;-45
2021/12/30 04:18:07;;;;;;;8.30;3.07;;;12.60;99.90;;;;;;5077062;28;20196;-46
2021/12/30 04:20:32;;;;;;;3.23;2.00;;;12.70;99.90;;;;;;5058704;28;20179;-46
2021/12/30 04:22:58;;;;;;;3.00;2.27;;;12.70;99.90;;;;;;5076463;28;20203;-46
2021/12/30 04:25:24;;;;;;;2.10;1.83;;;12.80;99.90;;;;;;5076565;28;20507;-45
2021/12/30 04:27:49;;;;;;;2.53;2.33;;;12.70;99.90;;;;;;5076561;28;20179;-45
2021/12/30 04:30:16;;;;;;;2.20;1.93;;;12.80;99.90;;;;;;5076500;28;20182;-46
2021/12/30 04:32:43;;;;;;;2.13;1.97;;;12.90;99.90;;;;;;5076476;28;20570;-46
2021/12/30 04:35:10;;;;;;;3.83;2.37;;;12.80;99.90;;;;;;5076432;28;20179;-44
2021/12/30 04:37:36;;;;;;;5.53;2.30;;;12.90;99.90;;;;;;5076272;28;20199;-45
2021/12/30 04:40:04;;;;;;;4.47;2.40;;;12.90;99.90;;;;;;5058225;28;20253;-45
2021/12/30 04:42:30;;;;;;;1.80;1.70;;;12.90;99.90;;;;;;5076056;28;20667;-45
2021/12/30 04:44:56;;;;;;;4.30;2.13;;;12.90;99.90;;;;;;5076102;28;20184;-44
2021/12/30 04:47:21;;;;;;;1.53;1.33;;;13.00;99.90;;;;;;5076189;28;20674;-46
2021/12/30 04:49:48;;;;;;;3.80;1.83;;;13.00;99.90;;;;;;5076208;28;20526;-45
2021/12/30 04:52:14;;;;;;;4.67;1.93;;;13.00;99.90;;;;;;5057767;28;20722;-46
2021/12/30 04:54:40;;;;;;;2.73;2.20;;;13.00;99.90;;;;;;5076106;28;20279;-46
2021/12/30 04:57:06;;;;;;;2.20;1.80;;;13.10;99.90;;;;;;5077213;28;20179;-46
2021/12/30 04:59:31;;;;;;;2.50;1.77;;;13.10;99.90;;;;;;5058500;28;20168;-46
2021/12/30 05:01:58;;;;;;;1.80;1.50;;;13.10;99.90;;;;;;5041562;28;20214;-46
2021/12/30 05:04:24;;;;;;;3.30;1.50;;;13.10;99.90;;;;;;5075999;28;20174;-46
2021/12/30 05:06:50;;;;;;;2.47;1.57;;;13.20;99.90;;;;;;5076256;28;20171;-46
2021/12/30 05:09:16;;;;;;;1.83;1.33;;;13.20;99.90;;;;;;5075581;28;20229;-45
2021/12/30 05:11:42;;;;;;;2.30;1.90;;;13.20;99.90;;;;;;5057700;28;20185;-46
2021/12/30 05:14:09;;;;;;;1.47;1.37;;;13.20;99.90;;;;;;5075727;28;20199;-46
2021/12/30 05:16:36;;;;;;;4.33;1.80;;;13.20;99.90;;;;;;5075848;28;20526;-46
2021/12/30 05:19:02;;;;;;;3.73;1.33;;;13.20;99.90;;;;;;5075508;28;20199;-46
2021/12/30 05:21:28;;;;;;;2.07;1.30;;;13.20;99.90;;;;;;5057546;28;20176;-45
2021/12/30 05:23:53;;;;;;;1.80;1.60;;;13.30;99.90;;;;;;5057657;28;20225;-47
2021/12/30 05:26:19;;;;;;;2.03;1.60;;;13.30;99.90;;;;;;5076041;28;20293;-45
2021/12/30 05:28:45;;;;;;;1.33;1.23;;;13.30;99.90;;;;;;5075422;28;20186;-47
2021/12/30 05:31:11;;;;;;;1.50;1.40;;;13.30;99.90;;;;;;5075419;28;20171;-46
2021/12/30 05:33:37;;;;;;;1.40;1.30;;;13.30;99.90;;;;;;5057485;28;20292;-47
2021/12/30 05:36:03;;;;;;;2.80;1.30;;;13.30;99.90;;;;;;5075623;28;20206;-46
2021/12/30 05:38:29;;;;;;;3.23;1.40;;;13.30;99.90;;;;;;5075534;28;20199;-45
2021/12/30 05:40:55;;;;;;;0.90;0.90;;;13.30;99.90;;;;;;5075568;28;20681;-45
2021/12/30 05:43:20;;;;;;;1.40;1.30;;;13.40;99.90;;;;;;5074937;28;20244;-45
2021/12/30 05:45:46;;;;;;;1.30;1.20;;;13.40;99.90;;;;;;5075260;28;20262;-44
2021/12/30 05:48:12;;;;;;;1.40;1.30;;;13.40;99.90;;;;;;5075093;28;20175;-46
2021/12/30 05:50:37;;;;;;;1.30;1.20;;;13.40;99.90;;;;;;5057146;28;20671;-46
2021/12/30 05:53:03;;;;;;;1.53;0.93;;;13.40;99.90;;;;;;5056780;28;20195;-45
2021/12/30 05:55:29;;;;;;;1.10;1.00;;;13.40;99.90;;;;;;5075578;28;20643;-45
2021/12/30 05:57:56;;;;;;;2.20;1.40;;;13.40;99.90;;;;;;5074908;28;20211;-45
2021/12/30 06:00:24;;;;;;;1.30;1.00;;;13.40;99.90;;;;;;5074792;28;20686;-46
2021/12/30 06:02:50;;;;;;;1.23;1.13;;;13.50;99.90;;;;;;5074569;28;20191;-45
2021/12/30 06:05:17;;;;;;;1.57;1.47;;;13.40;99.90;;;;;;5073744;28;20647;-45
2021/12/30 06:07:43;;;;;;;1.30;1.20;;;13.50;99.90;;;;;;5074591;28;20171;-45
2021/12/30 06:10:10;;;;;;;1.30;1.20;;;13.50;99.90;;;;;;5074424;28;20171;-44
2021/12/30 06:12:37;;;;;;;1.53;1.43;;;13.50;99.90;;;;;;5074523;28;20207;-47
2021/12/30 06:15:03;;;;;;;2.53;1.07;;;13.50;99.90;;;;;;5056503;28;20291;-47
2021/12/30 06:20:51;;;;;;;1.40;1.23;;;13.50;99.90;;;;;;5074405;28;20235;-45
2021/12/30 06:23:16;;;;;;;1.63;1.53;;;13.60;99.90;;;;;;5074235;28;20683;-44
2021/12/30 06:25:42;;;;;;;2.20;1.87;;;13.60;99.90;;;;;;5074148;28;20203;-46
2021/12/30 06:28:08;;;;;;;1.60;1.47;;;13.50;99.90;;;;;;5074635;28;20210;-43
2021/12/30 06:30:33;;;;;;;1.47;1.37;;;13.50;99.90;;;;;;5074030;28;20643;-45
2021/12/30 06:32:59;;;;;;;2.10;1.47;;;13.50;99.90;;;;;;5056098;28;20229;-46
2021/12/30 06:35:28;;;;;;;1.33;1.23;;;13.50;99.90;;;;;;5074106;28;20180;-46
2021/12/30 06:37:53;;;;;;;1.60;1.50;;;13.50;99.90;;;;;;5056695;28;20218;-45
2021/12/30 06:40:19;;;;;;;2.30;2.10;;;13.50;99.90;;;;;;5073905;28;20190;-46
2021/12/30 06:42:45;;;;;;;1.40;1.30;;;13.50;99.90;;;;;;5074035;28;20278;-46
2021/12/30 06:45:11;;;;;;;1.17;1.00;;;13.50;99.90;;;;;;5055999;28;20198;-47
2021/12/30 06:47:37;;;;;;;1.70;1.60;;;13.50;99.90;;;;;;5056570;28;20597;-47
2021/12/30 06:50:03;;;;;;;1.90;1.70;;;13.50;99.90;;;;;;5056141;28;20245;-46
2021/12/30 06:52:30;;;;;;;4.67;1.43;;;13.50;99.90;;;;;;5073917;28;20223;-45
2021/12/30 06:54:56;;;;;;;1.43;1.33;;;13.50;99.90;;;;;;5055949;28;20206;-46
2021/12/30 06:57:22;;;;;;;1.70;1.60;;;13.50;99.90;;;;;;5073829;28;20210;-47
2021/12/30 06:59:48;;;;;;;3.00;1.80;;;13.50;99.90;;;;;;5074055;28;20172;-47
2021/12/30 07:02:14;;;;;;;2.87;1.60;;;13.50;99.90;;;;;;5055874;28;20199;-47
2021/12/30 07:04:40;;;;;;;2.87;1.47;;;13.50;99.90;;;;;;5073615;28;20642;-47
2021/12/30 07:07:06;;;;;;;1.67;1.23;;;13.50;99.90;;;;;;5073781;28;20186;-46
2021/12/30 07:09:32;;;;;;;2.43;1.30;;;13.50;99.90;;;;;;5073753;28;20224;-48
2021/12/30 07:11:59;;;;;;;2.40;1.30;;;13.50;99.90;;;;;;5073744;28;20539;-47
2021/12/30 07:14:25;;;;;;;1.03;1.03;;;13.60;99.90;;;;;;5073590;28;20171;-48
2021/12/30 07:16:51;;;;;;;1.40;1.30;;;13.60;99.90;;;;;;5055550;28;20316;-46
2021/12/30 07:19:17;;;;;;;1.07;0.80;;;13.60;99.90;;;;;;5073456;28;20313;-48
2021/12/30 07:21:43;;;;;;;2.30;0.93;;;13.50;99.90;;;;;;5055796;28;20176;-47
2021/12/30 07:24:09;;;;;;;0.80;0.80;;;13.50;99.90;;;;;;5055446;28;20186;-46
2021/12/30 07:26:35;;;;;;;0.93;0.90;;;13.50;99.90;;;;;;5073361;28;20172;-47
2021/12/30 07:29:01;;;;;;;2.80;1.10;;;13.50;99.90;;;;;;5055436;28;20233;-47
2021/12/30 07:31:27;;;;;;;0.90;0.90;;;13.50;99.90;;;;;;5073485;28;20535;-48
2021/12/30 07:33:53;;;;;;;4.10;1.00;;;13.50;99.90;;;;;;5073407;28;20203;-46
2021/12/30 07:36:19;;;;;;;0.60;0.60;;;13.50;99.90;;;;;;5055432;28;20211;-46
2021/12/30 07:38:44;;;;;;;0.90;0.90;;;13.50;99.90;;;;;;5055315;28;20215;-47
2021/12/30 07:41:10;;;;;;;1.83;1.00;;;13.50;99.90;;;;;;5073386;28;20168;-45
2021/12/30 07:43:36;;;;;;;1.20;1.10;;;13.50;99.90;;;;;;5073562;28;20215;-47
2021/12/30 07:46:02;;;;;;;1.10;1.10;;;13.50;99.90;;;;;;5055699;28;20179;-47
2021/12/30 07:48:28;;;;;;;1.77;1.13;;;13.50;99.90;;;;;;5073257;28;20175;-48
2021/12/30 07:50:54;;;;;;;2.07;1.20;;;13.50;99.90;;;;;;5073309;28;20252;-47
2021/12/30 07:53:20;;;;;;;1.77;1.03;;;13.60;99.90;;;;;;5073160;28;20191;-47
2021/12/30 07:55:46;;;;;;;1.83;1.20;;;13.60;99.90;;;;;;5073318;28;20195;-46
2021/12/30 07:58:12;;;;;;;1.20;0.90;;;13.60;99.90;;;;;;5073122;28;20196;-48
2021/12/30 08:00:38;;;;;;;7.50;1.03;;;13.60;99.90;;;;;;5055319;28;20670;-47
2021/12/30 08:03:04;;;;;;;1.57;1.10;;;13.60;99.90;;;;;;5073307;28;20203;-49
2021/12/30 08:05:29;;;;;;;0.77;0.77;;;13.60;99.90;;;;;;5073310;28;20179;-47
2021/12/30 08:07:55;;;;;;;1.20;1.10;;;13.60;99.90;;;;;;5073170;28;20671;-47
2021/12/30 08:10:22;;;;;;;1.30;1.03;;;13.60;99.90;;;;;;5054894;28;20214;-46
2021/12/30 08:12:49;;;;;;;1.10;1.00;;;13.60;99.90;;;;;;5072820;28;20215;-45
2021/12/30 08:15:16;;;;;;;2.80;1.10;;;13.70;99.90;;;;;;5072949;28;20187;-46
2021/12/30 08:17:43;;;;;;;2.67;1.00;;;13.60;99.90;;;;;;5072882;28;20203;-45
2021/12/30 08:20:10;;;;;;;1.00;1.00;;;13.60;99.90;;;;;;5054808;28;20176;-47
2021/12/30 08:22:36;;;;;;;1.30;1.10;;;13.60;99.90;;;;;;5054809;28;20192;-45
2021/12/30 08:25:04;;;;;;;0.77;0.77;;;13.60;99.90;;;;;;5054891;28;20184;-46
2021/12/30 08:27:29;;;;;;;0.87;0.87;;;13.70;99.90;;;;;;5073457;28;20156;-45
2021/12/30 08:33:17;;;;;;;1.07;1.00;;;13.70;99.90;;;;;;5076313;28;20194;-46
2021/12/30 08:35:43;;;;;;;1.50;1.03;;;13.60;99.90;;;;;;5058424;28;20176;-46
2021/12/30 08:38:10;;;;;;;1.97;1.10;;;13.60;99.90;;;;;;5058236;28;20290;-45
2021/12/30 08:40:36;;;;;;;1.93;1.10;;;13.60;99.90;;;;;;5076755;28;20187;-46
2021/12/30 08:43:03;;;;;;;0.90;0.90;;;13.60;99.90;;;;;;5076192;28;20249;-48
2021/12/30 08:45:29;;;;;;;1.10;1.00;;;13.60;99.90;;;;;;5058397;28;20188;-45
2021/12/30 08:47:54;;;;;;;1.07;0.97;;;13.70;99.90;;;;;;5076171;28;20206;-45
2021/12/30 08:50:20;;;;;;;1.10;0.87;;;13.70;99.90;;;;;;5076173;28;20207;-45
2021/12/30 08:52:47;;;;;;;1.23;0.90;;;13.70;99.90;;;;;;5058144;28;20206;-46
2021/12/30 08:55:14;;;;;;;1.00;0.90;;;13.70;99.90;;;;;;5076458;28;20172;-47
2021/12/30 08:57:41;;;;;;;1.10;1.00;;;13.70;99.90;;;;;;5076116;28;20248;-45
2021/12/30 09:00:12;;;;;;;1.70;1.03;;;13.80;99.90;;;;;;5075914;28;20163;-46
2021/12/30 09:02:37;;;;;;;0.80;0.80;;;13.80;99.90;;;;;;5058699;28;20668;-45
2021/12/30 09:05:03;;;;;;;1.77;1.20;;;13.80;99.90;;;;;;5058205;28;20168;-45
2021/12/30 09:07:29;;;;;;;1.27;1.17;;;13.90;99.90;;;;;;5076355;28;20203;-47
2021/12/30 09:09:55;;;;;;;1.13;1.03;;;13.90;99.90;;;;;;5075781;28;20585;-47
2021/12/30 09:12:22;;;;;;;2.90;1.53;;;13.90;99.90;;;;;;5076024;28;20199;-46
2021/12/30 09:14:48;;;;;;;1.30;1.00;;;13.90;99.90;;;;;;5075953;28;20184;-47
2021/12/30 09:17:14;;;;;;;2.50;1.10;;;13.90;99.90;;;;;;5058010;28;20248;-47
2021/12/30 09:19:39;;;;;;;1.30;1.20;;;13.90;99.90;;;;;;5076056;28;20179;-45
2021/12/30 09:22:05;;;;;;;2.00;1.73;;;13.90;99.90;;;;;;5075935;28;20678;-46
2021/12/30 09:24:31;;;;;;;1.47;1.37;;;14.00;99.90;;;;;;5058051;28;20179;-46
2021/12/30 09:26:56;;;;;;;2.57;1.27;;;13.90;99.90;;;;;;5075814;28;20233;-47
2021/12/30 09:29:22;;;;;;;1.30;1.20;;;14.00;99.90;;;;;;5075782;28;20225;-47
2021/12/30 09:31:50;;;;;;;1.70;1.60;;;14.00;99.90;;;;;;5057901;28;20203;-46
2021/12/30 09:34:17;;;;;;;4.03;1.20;;;14.00;99.90;;;;;;5057948;28;20180;-47
2021/12/30 09:37:12;;;;;;;1.33;1.07;;;14.00;99.90;;;;;;5057763;28;20188;-47
2021/12/30 09:39:40;;;;;;;3.50;1.37;;;14.00;99.90;;;;;;5058104;28;20613;-48
2021/12/30 09:42:07;;;;;;;1.57;1.00;;;14.00;99.90;;;;;;5075572;28;20230;-47
2021/12/30 09:44:33;;;;;;;0.83;0.80;;;14.00;99.90;;;;;;5057735;28;20287;-46
2021/12/30 09:46:59;;;;;;;1.10;1.00;;;14.00;99.90;;;;;;5057536;28;20583;-47
2021/12/30 09:49:26;;;;;;;0.53;0.53;;;14.10;99.90;;;;;;5057482;28;20218;-47
2021/12/30 09:51:53;;;;;;;1.13;1.00;;;14.10;99.90;;;;;;5075824;28;20195;-47
2021/12/30 09:54:19;;;;;;;1.87;0.87;;;14.10;99.90;;;;;;5057305;28;20211;-47
2021/12/30 09:56:48;;;;;;;1.53;1.00;;;14.10;99.90;;;;;;5075462;28;20206;-49
2021/12/30 09:59:14;;;;;;;2.10;0.93;;;14.10;99.90;;;;;;5057875;28;20210;-46
2021/12/30 10:01:42;;;;;;;1.17;0.97;;;14.10;99.90;;;;;;5074987;28;20279;-44
2021/12/30 10:04:10;;;;;;;1.20;1.10;;;14.10;99.90;;;;;;5074933;28;20166;-45
2021/12/30 10:06:42;;;;;;;3.30;1.47;;;14.10;99.90;;;;;;5074911;28;20176;-47
2021/12/30 10:09:13;;;;;;;1.20;1.00;;;14.20;99.90;;;;;;5074745;28;20218;-46
2021/12/30 10:11:59;;;;;;;2.60;1.13;;;14.20;99.90;;;;;;5074843;28;20254;-46
2021/12/30 10:14:37;;;;;;;0.77;0.77;;;14.20;99.90;;;;;;5074653;28;20156;-47
2021/12/30 10:17:21;;;;;;;1.20;1.10;;;14.30;99.90;;;;;;5074502;28;20168;-46
2021/12/30 10:19:50;;;;;;;3.40;0.90;;;14.20;99.90;;;;;;5056442;28;20583;-45
2021/12/30 10:22:19;;;;;;;1.30;1.20;;;14.30;99.90;;;;;;5056301;28;20206;-46
2021/12/30 10:24:45;;;;;;;2.77;1.87;;;14.30;99.90;;;;;;5056417;28;20709;-47
2021/12/30 10:27:28;;;;;;;2.03;1.37;;;14.30;99.90;;;;;;5074298;28;20658;-45
2021/12/30 10:29:55;;;;;;;1.93;1.40;;;14.30;99.90;;;;;;5040494;28;20172;-46
2021/12/30 10:32:28;;;;;;;4.33;1.77;;;14.40;99.90;;;;;;5074586;28;20199;-45
2021/12/30 10:35:04;;;;;;;2.23;1.40;;;14.40;99.90;;;;;;5056305;28;20172;-45
2021/12/30 10:37:30;;;;;;;3.17;1.37;;;14.40;99.90;;;;;;5056253;28;20179;-47
2021/12/30 10:39:55;;;;;;;1.97;1.67;;;14.40;99.90;;;;;;5073948;28;20266;-45
2021/12/30 10:42:21;;;;;;;1.43;1.33;;;14.40;99.90;;;;;;5073883;28;20200;-45
2021/12/30 10:44:56;;;;;;;6.20;1.67;;;14.50;99.90;;;;;;5074462;28;20282;-47
2021/12/30 10:47:27;;;;;;;6.20;1.70;;;14.50;99.90;;;;;;5074144;28;20619;-47
2021/12/30 10:50:12;;;;;;;5.53;1.70;;;14.50;99.90;;;;;;5073753;28;20171;-46
2021/12/30 10:52:56;;;;;;;3.33;1.37;;;14.50;99.90;;;;;;5022887;28;20286;-46
2021/12/30 10:55:24;;;;;;;8.37;2.27;;;14.50;99.90;;;;;;5074181;28;20164;-46
2021/12/30 10:57:50;;;;;;;4.63;2.27;;;14.50;99.90;;;;;;5055622;28;20207;-47
2021/12/30 11:00:36;;;;;;;6.47;2.07;;;14.50;99.90;;;;;;5073787;28;20204;-46
2021/12/30 11:03:25;;;;;;;3.87;2.13;;;14.50;99.90;;;;;;5055330;28;20210;-47
2021/12/30 11:06:18;;;;;;;4.63;2.50;;;14.50;99.90;;;;;;5073688;28;20152;-48
2021/12/30 11:08:47;;;;;;;5.37;2.10;;;14.60;99.90;;;;;;5074236;28;20163;-45
2021/12/30 11:11:29;;;;;;;4.43;1.70;;;14.50;99.90;;;;;;5073730;28;20178;-46
2021/12/30 11:14:18;;;;;;;6.10;2.07;;;14.60;99.90;;;;;;5055441;28;20586;-46
2021/12/30 11:17:02;;;;;;;10.70;3.30;;;14.50;99.90;;;;;;5073804;28;20531;-44
2021/12/30 11:19:30;;;;;;;4.43;2.57;;;14.60;99.90;;;;;;5073475;28;20192;-44
2021/12/30 11:22:00;;;;;;;5.07;2.87;;;14.60;99.90;;;;;;5073523;28;20207;-47
2021/12/30 11:24:27;;;;;;;6.07;2.60;;;14.60;99.90;;;;;;5073200;28;20172;-46
2021/12/30 11:26:54;;;;;;;3.97;2.40;;;14.60;99.90;;;;;;5073468;28;20258;-44
2021/12/30 11:29:20;;;;;;;8.83;2.70;;;14.60;99.90;;;;;;5073232;28;20708;-45
2021/12/30 11:31:47;;;;;;;6.33;2.13;;;14.60;99.90;;;;;;5073206;28;20270;-46
2021/12/30 11:34:13;;;;;;;7.03;2.43;;;14.60;99.90;;;;;;5055194;28;20186;-46
2021/12/30 11:36:38;;;;;;;5.60;2.50;;;14.60;99.90;;;;;;5073605;28;20207;-45
2021/12/30 11:39:20;;;;;;;5.50;2.77;;;14.60;99.90;;;;;;5073599;28;20238;-45
2021/12/30 11:42:00;;;;;;;5.00;1.97;;;14.60;99.90;;;;;;5073397;28;20191;-46
2021/12/30 11:44:42;;;;;;;2.57;2.10;;;14.60;99.90;;;;;;5055378;28;20553;-45
2021/12/30 11:47:30;;;;;;;6.37;1.90;;;14.60;99.90;;;;;;5073092;28;20160;-45
2021/12/30 11:49:58;;;;;;;3.87;1.70;;;14.60;99.90;;;;;;5054973;28;20266;-45
2021/12/30 11:52:59;;;;;;;3.70;1.70;;;14.60;99.90;;;;;;5072988;28;20195;-46
2021/12/30 11:55:42;;;;;;;5.43;2.00;;;14.60;99.90;;;;;;5055012;28;20329;-46
2021/12/30 11:58:48;;;;;;;4.40;1.70;;;14.70;99.90;;;;;;5038467;28;20546;-45
2021/12/30 12:01:13;;;;;;;4.77;1.50;;;14.70;99.90;;;;;;4991930;28;20173;-47
2021/12/30 12:03:43;;;;;;;7.17;2.20;;;14.80;99.90;;;;;;5061247;28;20214;-47
2021/12/30 12:06:24;;;;;;;6.13;1.80;;;14.80;99.90;;;;;;5059290;28;20184;-44
2021/12/30 12:08:51;;;;;;;8.77;1.70;;;14.80;99.90;;;;;;5076933;28;20533;-46
2021/12/30 12:11:20;;;;;;;6.70;1.80;;;14.80;99.90;;;;;;5076748;28;20218;-44
2021/12/30 12:13:48;;;;;;;3.93;1.53;;;14.80;99.90;;;;;;5077070;28;20578;-45
2021/12/30 12:16:15;;;;;;;4.17;1.63;;;14.80;99.90;;;;;;5077035;28;20179;-46
2021/12/30 12:19:04;;;;;;;2.40;1.40;;;14.80;99.90;;;;;;5058786;28;20234;-45
2021/12/30 12:21:40;;;;;;;4.30;1.80;;;14.80;99.90;;;;;;5076826;28;20195;-46
2021/12/30 12:24:33;;;;;;;5.73;1.80;;;14.80;99.90;;;;;;5076629;28;20208;-47
2021/12/30 12:27:03;;;;;;;2.40;1.40;;;14.80;99.90;;;;;;5073567;28;20192;-45
2021/12/30 12:29:52;;;;;;;3.57;1.77;;;14.80;99.90;;;;;;5077341;28;20172;-45
2021/12/30 12:32:30;;;;;;;2.40;1.70;;;14.80;99.90;;;;;;5076638;28;20234;-46
2021/12/30 12:34:58;;;;;;;2.27;1.40;;;14.80;99.90;;;;;;5076849;28;20709;-46
2021/12/30 12:37:30;;;;;;;1.47;1.37;;;14.80;99.90;;;;;;5058372;28;20206;-45
2021/12/30 12:40:01;;;;;;;2.43;1.33;;;14.80;99.90;;;;;;5076449;28;20188;-45
2021/12/30 12:42:49;;;;;;;2.73;1.40;;;14.80;99.90;;;;;;5076401;28;20219;-45
2021/12/30 12:45:28;;;;;;;2.60;1.30;;;14.80;99.90;;;;;;5076175;28;20171;-45
2021/12/30 12:48:33;;;;;;;3.23;1.20;;;14.90;99.90;;;;;;5076462;28;20172;-46
2021/12/30 12:51:06;;;;;;;2.50;1.30;;;14.80;99.90;;;;;;4994903;28;20249;-46
2021/12/30 12:53:31;;;;;;;2.17;1.30;;;14.80;99.90;;;;;;5065720;28;20208;-46
2021/12/30 12:56:05;;;;;;;2.60;0.97;;;14.80;99.90;;;;;;5076885;28;20180;-46
2021/12/30 12:58:39;;;;;;;4.40;1.50;;;14.80;99.90;;;;;;5075842;28;20179;-47